createdAt,value
2019-02-06T00:01:24.334Z,-3.16
2019-02-06T00:03:55.406Z,-3.30
2019-02-06T00:06:26.497Z,-3.55
2019-02-06T00:08:57.759Z,-3.53
2019-02-06T00:11:28.877Z,-3.42
2019-02-06T00:14:00.069Z,-3.45
2019-02-06T00:16:31.394Z,-3.61
2019-02-06T00:19:02.765Z,-3.42
2019-02-06T00:21:33.977Z,-3.49
2019-02-06T00:24:05.287Z,-3.50
2019-02-06T00:26:42.083Z,-3.46
2019-02-06T00:29:13.157Z,-3.81
2019-02-06T00:31:45.206Z,-3.59
2019-02-06T00:34:17.091Z,-3.61
2019-02-06T00:36:48.254Z,-3.78
2019-02-06T00:39:19.320Z,-3.53
2019-02-06T00:41:50.499Z,-3.59
2019-02-06T00:44:21.730Z,-3.74
2019-02-06T00:46:53.857Z,-3.80
2019-02-06T00:49:25.974Z,-3.85
2019-02-06T00:51:57.135Z,-3.98
2019-02-06T00:54:28.225Z,-4.14
2019-02-06T00:56:59.409Z,-3.74
2019-02-06T00:59:30.633Z,-3.79
2019-02-06T01:02:02.115Z,-3.90
2019-02-06T01:04:34.065Z,-3.87
2019-02-06T01:07:05.677Z,-3.94
2019-02-06T01:09:36.984Z,-3.98
2019-02-06T01:12:08.065Z,-4.08
2019-02-06T01:14:39.206Z,-4.08
2019-02-06T01:17:15.763Z,-4.37
2019-02-06T01:19:49.021Z,-4.55
2019-02-06T01:22:20.111Z,-4.39
2019-02-06T01:24:51.484Z,-4.45
2019-02-06T01:27:22.704Z,-4.38
2019-02-06T01:29:53.937Z,-4.50
2019-02-06T01:32:25.847Z,-4.46
2019-02-06T01:34:57.012Z,-4.59
2019-02-06T01:37:28.357Z,-4.58
2019-02-06T01:40:00.974Z,-4.65
2019-02-06T01:42:32.674Z,-4.74
2019-02-06T01:45:04.040Z,-4.58
2019-02-06T01:47:35.258Z,-4.70
2019-02-06T01:50:09.884Z,-4.59
2019-02-06T01:52:40.979Z,-4.62
2019-02-06T01:55:12.271Z,-4.71
2019-02-06T01:57:43.917Z,-4.97
2019-02-06T02:00:17.482Z,-5.08
2019-02-06T02:02:49.077Z,-4.93
2019-02-06T02:05:20.919Z,-5.03
2019-02-06T02:07:53.812Z,-4.95
2019-02-06T02:10:24.978Z,-4.99
2019-02-06T02:12:57.075Z,-5.17
2019-02-06T02:15:28.298Z,-5.14
2019-02-06T02:18:01.333Z,-5.55
2019-02-06T02:20:32.521Z,-5.55
2019-02-06T02:23:04.389Z,-5.32
2019-02-06T02:25:35.499Z,-5.80
2019-02-06T02:28:06.672Z,-5.59
2019-02-06T02:30:47.248Z,-5.55
2019-02-06T02:33:18.384Z,-5.52
2019-02-06T02:35:49.625Z,-5.75
2019-02-06T02:38:20.786Z,-5.85
2019-02-06T02:40:52.285Z,-5.79
2019-02-06T02:43:23.362Z,-5.73
2019-02-06T02:45:54.549Z,-5.61
2019-02-06T02:48:25.799Z,-5.77
2019-02-06T02:50:56.968Z,-5.60
2019-02-06T02:53:29.340Z,-5.68
2019-02-06T02:56:00.901Z,-5.74
2019-02-06T02:58:32.524Z,-5.83
2019-02-06T03:01:17.629Z,-5.65
2019-02-06T03:04:06.548Z,-5.86
2019-02-06T03:06:38.524Z,-5.83
2019-02-06T03:09:12.607Z,-6.03
2019-02-06T03:11:43.998Z,-5.94
2019-02-06T03:14:15.748Z,-5.92
2019-02-06T03:16:48.214Z,-5.92
2019-02-06T03:19:19.302Z,-6.05
2019-02-06T03:21:51.424Z,-6.07
2019-02-06T03:24:23.232Z,-6.25
2019-02-06T03:26:54.718Z,-6.05
2019-02-06T03:29:25.748Z,-6.11
2019-02-06T03:31:56.922Z,-6.11
2019-02-06T03:34:28.118Z,-6.17
2019-02-06T03:36:59.838Z,-6.16
2019-02-06T03:39:31.274Z,-6.39
2019-02-06T03:42:02.689Z,-6.35
2019-02-06T03:44:33.940Z,-6.43
2019-02-06T03:47:10.256Z,-6.54
2019-02-06T03:49:43.696Z,-6.46
2019-02-06T03:52:15.801Z,-6.42
2019-02-06T03:54:46.960Z,-6.59
2019-02-06T03:57:18.127Z,-6.67
2019-02-06T03:59:50.601Z,-6.68
2019-02-06T04:02:21.736Z,-6.74
2019-02-06T04:04:54.845Z,-6.74
2019-02-06T04:07:26.064Z,-6.83
2019-02-06T04:09:59.015Z,-6.88
2019-02-06T04:12:30.307Z,-7.01
2019-02-06T04:15:01.454Z,-7.08
2019-02-06T04:17:32.987Z,-7.22
2019-02-06T04:20:04.567Z,-7.30
2019-02-06T04:22:37.316Z,-7.29
2019-02-06T04:25:08.500Z,-7.39
2019-02-06T04:27:39.725Z,-7.44
2019-02-06T04:30:12.312Z,-7.39
2019-02-06T04:32:44.253Z,-7.34
2019-02-06T04:35:15.618Z,-7.34
2019-02-06T04:37:46.865Z,-7.25
2019-02-06T04:40:18.742Z,-7.97
2019-02-06T04:42:50.259Z,-7.50
2019-02-06T04:45:21.340Z,-7.66
2019-02-06T04:47:52.560Z,-7.56
2019-02-06T04:50:24.307Z,-7.60
2019-02-06T04:52:55.567Z,-7.65
2019-02-06T04:55:27.335Z,-7.55
2019-02-06T04:58:00.533Z,-7.50
2019-02-06T05:00:31.675Z,-7.56
2019-02-06T05:03:02.814Z,-8.35
2019-02-06T05:05:34.133Z,-8.34
2019-02-06T05:08:05.288Z,-8.17
2019-02-06T05:10:36.914Z,-8.45
2019-02-06T05:13:08.070Z,-8.21
2019-02-06T05:15:39.196Z,-8.29
2019-02-06T05:18:10.424Z,-8.19
2019-02-06T05:20:41.914Z,-8.27
2019-02-06T05:23:14.027Z,-8.30
2019-02-06T05:25:45.396Z,-8.36
2019-02-06T05:28:18.285Z,-8.31
2019-02-06T05:30:50.513Z,-8.34
2019-02-06T05:33:21.731Z,-8.37
2019-02-06T05:35:53.895Z,-8.38
2019-02-06T05:38:25.088Z,-8.47
2019-02-06T05:40:56.165Z,-8.44
2019-02-06T05:43:27.467Z,-8.46
2019-02-06T05:45:59.524Z,-8.53
2019-02-06T05:48:31.354Z,-8.57
2019-02-06T05:51:02.660Z,-8.73
2019-02-06T05:53:34.333Z,-8.74
2019-02-06T05:56:06.984Z,-8.74
2019-02-06T05:58:39.699Z,-8.71
2019-02-06T06:01:11.947Z,-8.79
2019-02-06T06:03:43.294Z,-8.82
2019-02-06T06:06:14.376Z,-9.00
2019-02-06T06:08:45.632Z,-8.97
2019-02-06T06:11:17.855Z,-8.84
2019-02-06T06:13:48.964Z,-8.78
2019-02-06T06:16:20.240Z,-8.76
2019-02-06T06:18:51.396Z,-8.84
2019-02-06T06:21:22.732Z,-8.95
2019-02-06T06:23:53.871Z,-8.95
2019-02-06T06:26:25.526Z,-8.80
2019-02-06T06:28:57.280Z,-8.96
2019-02-06T06:31:28.554Z,-8.89
2019-02-06T06:34:00.157Z,-8.99
2019-02-06T06:36:31.346Z,-9.05
2019-02-06T06:39:04.100Z,-9.17
2019-02-06T06:41:35.379Z,-9.30
2019-02-06T06:44:06.889Z,-9.13
2019-02-06T06:46:39.806Z,-9.23
2019-02-06T06:49:10.976Z,-9.18
2019-02-06T06:51:48.150Z,-9.15
2019-02-06T06:54:19.786Z,-9.04
2019-02-06T06:56:51.659Z,-9.11
2019-02-06T06:59:25.171Z,-9.07
2019-02-06T07:01:56.346Z,-9.22
2019-02-06T07:04:28.204Z,-9.11
2019-02-06T07:06:59.996Z,-9.05
2019-02-06T07:09:31.192Z,-9.12
2019-02-06T07:12:02.965Z,-9.11
2019-02-06T07:14:34.146Z,-9.11
2019-02-06T07:17:05.387Z,-9.16
2019-02-06T07:19:36.953Z,-9.10
2019-02-06T07:22:10.450Z,-9.05
2019-02-06T07:24:41.589Z,-8.89
2019-02-06T07:27:12.939Z,-8.88
2019-02-06T07:29:44.123Z,-8.82
2019-02-06T07:32:15.749Z,-8.80
2019-02-06T07:34:46.913Z,-8.81
2019-02-06T07:37:17.976Z,-8.75
2019-02-06T07:39:49.132Z,-8.77
2019-02-06T07:42:20.460Z,-8.81
2019-02-06T07:44:51.672Z,-8.71
2019-02-06T07:47:23.031Z,-8.69
2019-02-06T07:49:55.383Z,-8.65
2019-02-06T07:52:27.985Z,-8.71
2019-02-06T07:54:59.894Z,-8.58
2019-02-06T07:57:31.058Z,-8.68
2019-02-06T08:00:02.944Z,-8.68
2019-02-06T08:02:34.208Z,-8.61
2019-02-06T08:05:08.193Z,-8.52
2019-02-06T08:07:39.319Z,-8.47
2019-02-06T08:10:14.198Z,-8.58
2019-02-06T08:12:45.428Z,-8.61
2019-02-06T08:15:17.596Z,-8.51
2019-02-06T08:17:48.730Z,-8.40
2019-02-06T08:20:20.440Z,-8.41
2019-02-06T08:22:51.597Z,-8.36
2019-02-06T08:25:22.977Z,-8.21
2019-02-06T08:27:54.200Z,-8.21
2019-02-06T08:30:28.455Z,-8.05
2019-02-06T08:32:59.903Z,-7.86
2019-02-06T08:35:32.059Z,-7.73
2019-02-06T08:38:03.139Z,-7.54
2019-02-06T08:40:34.404Z,-7.41
2019-02-06T08:43:05.564Z,-7.13
2019-02-06T08:45:36.969Z,-6.93
2019-02-06T08:48:13.491Z,-6.87
2019-02-06T08:50:44.658Z,-6.68
2019-02-06T08:53:15.813Z,-6.48
2019-02-06T08:55:47.105Z,-6.36
2019-02-06T08:58:18.291Z,-6.23
2019-02-06T09:00:49.358Z,-5.96
2019-02-06T09:03:20.516Z,-5.64
2019-02-06T09:05:52.003Z,-5.74
2019-02-06T09:08:23.160Z,-5.35
2019-02-06T09:10:54.316Z,-5.27
2019-02-06T09:13:25.559Z,-4.88
2019-02-06T09:15:57.254Z,-4.68
2019-02-06T09:18:28.413Z,-4.41
2019-02-06T09:20:59.496Z,-4.42
2019-02-06T09:23:31.000Z,-4.37
2019-02-06T09:26:02.392Z,-4.44
2019-02-06T09:28:33.723Z,-3.99
2019-02-06T09:31:04.891Z,-4.06
2019-02-06T09:33:36.023Z,-4.50
2019-02-06T09:36:07.174Z,-4.34
2019-02-06T09:38:38.323Z,-4.38
2019-02-06T09:41:09.846Z,-4.29
2019-02-06T09:43:41.432Z,-4.30
2019-02-06T09:46:13.024Z,-4.09
2019-02-06T09:48:44.157Z,-3.69
2019-02-06T09:51:15.370Z,-3.63
2019-02-06T09:53:46.516Z,-4.22
2019-02-06T09:56:17.870Z,-4.05
2019-02-06T09:58:48.964Z,-3.92
2019-02-06T10:01:21.518Z,-3.83
2019-02-06T10:03:53.033Z,-3.78
2019-02-06T10:06:24.265Z,-3.50
2019-02-06T10:08:55.457Z,-3.37
2019-02-06T10:11:26.708Z,-3.47
2019-02-06T10:13:57.933Z,-3.83
2019-02-06T10:16:29.211Z,-3.67
2019-02-06T10:19:00.492Z,-3.64
2019-02-06T10:21:31.850Z,-3.25
2019-02-06T10:24:02.926Z,-3.06
2019-02-06T10:26:35.045Z,-3.42
2019-02-06T10:29:08.801Z,-3.59
2019-02-06T10:31:39.967Z,-3.76
2019-02-06T10:34:11.396Z,-4.09
2019-02-06T10:36:42.998Z,-4.35
2019-02-06T10:39:14.192Z,-4.12
2019-02-06T10:41:46.416Z,-4.26
2019-02-06T10:44:17.833Z,-4.22
2019-02-06T10:46:50.625Z,-4.13
2019-02-06T10:49:23.074Z,-4.41
2019-02-06T10:51:54.228Z,-4.63
2019-02-06T10:54:25.418Z,-4.46
2019-02-06T10:56:56.590Z,-4.36
2019-02-06T10:59:28.353Z,-4.42
2019-02-06T11:01:59.515Z,-4.45
2019-02-06T11:04:30.773Z,-4.50
2019-02-06T11:07:02.237Z,-4.42
2019-02-06T11:09:45.763Z,-4.42
2019-02-06T11:12:06.753Z,-4.41
2019-02-06T11:14:38.461Z,-4.38
2019-02-06T11:17:09.953Z,-4.34
2019-02-06T11:19:43.152Z,-4.30
2019-02-06T11:22:14.097Z,-4.30
2019-02-06T11:24:45.257Z,-4.35
2019-02-06T11:27:17.194Z,-4.26
2019-02-06T11:29:48.685Z,-4.28
2019-02-06T11:32:19.754Z,-4.21
2019-02-06T11:34:51.061Z,-4.08
2019-02-06T11:37:22.635Z,-4.06
2019-02-06T11:39:58.003Z,-3.95
2019-02-06T11:42:27.216Z,-4.00
2019-02-06T11:44:59.437Z,-3.94
2019-02-06T11:47:44.358Z,-3.94
2019-02-06T11:50:14.119Z,-3.91
2019-02-06T11:52:45.455Z,-3.76
2019-02-06T11:55:18.661Z,-3.69
2019-02-06T11:57:50.843Z,-3.64
2019-02-06T12:00:44.989Z,-3.48
2019-02-06T12:03:18.417Z,-3.54
2019-02-06T12:05:49.590Z,-3.44
2019-02-06T12:08:20.825Z,-3.38
2019-02-06T12:10:53.581Z,-3.38
2019-02-06T12:13:24.840Z,-3.34
2019-02-06T12:15:56.222Z,-3.12
2019-02-06T12:18:29.749Z,-3.07
2019-02-06T12:21:00.931Z,-2.84
2019-02-06T12:23:32.834Z,-2.68
2019-02-06T12:26:06.640Z,-2.82
2019-02-06T12:28:38.196Z,-2.52
2019-02-06T12:31:10.405Z,-2.65
2019-02-06T12:33:41.533Z,-2.61
2019-02-06T12:36:15.717Z,-2.52
2019-02-06T12:38:53.199Z,-2.32
2019-02-06T12:41:18.600Z,-2.35
2019-02-06T12:43:49.777Z,-2.29
2019-02-06T12:46:21.021Z,-2.39
2019-02-06T12:48:52.716Z,-2.21
2019-02-06T12:51:24.286Z,-2.19
2019-02-06T12:53:55.531Z,-2.05
2019-02-06T12:56:26.746Z,-2.14
2019-02-06T12:58:57.807Z,-2.17
2019-02-06T13:01:28.917Z,-1.90
2019-02-06T13:04:00.071Z,-2.00
2019-02-06T13:06:31.403Z,-2.11
2019-02-06T13:09:02.567Z,-1.87
2019-02-06T13:11:35.308Z,-1.56
2019-02-06T13:14:06.460Z,-1.64
2019-02-06T13:16:37.745Z,-1.37
2019-02-06T13:19:08.892Z,-1.34
2019-02-06T13:21:40.070Z,-1.31
2019-02-06T13:24:12.789Z,-1.33
2019-02-06T13:26:44.369Z,-1.35
2019-02-06T13:29:15.776Z,-1.48
2019-02-06T13:31:46.857Z,-1.53
2019-02-06T13:34:18.037Z,-1.53
2019-02-06T13:36:49.413Z,-1.49
2019-02-06T13:39:20.499Z,-1.80
2019-02-06T13:41:51.729Z,-1.70
2019-02-06T13:44:23.155Z,-1.74
2019-02-06T13:46:54.635Z,-1.84
2019-02-06T13:49:25.820Z,-1.73
2019-02-06T13:51:59.246Z,-1.84
2019-02-06T13:54:30.403Z,-1.93
2019-02-06T13:57:02.788Z,-1.81
2019-02-06T13:59:33.959Z,-2.41
2019-02-06T14:02:05.131Z,-2.21
2019-02-06T14:04:36.897Z,-2.18
2019-02-06T14:07:08.208Z,-2.21
2019-02-06T14:09:40.779Z,-2.28
2019-02-06T14:12:13.513Z,-2.29
2019-02-06T14:14:45.187Z,-2.30
2019-02-06T14:17:18.375Z,-2.35
2019-02-06T14:19:49.800Z,-2.52
2019-02-06T14:22:21.081Z,-2.47
2019-02-06T14:25:24.745Z,-2.61
2019-02-06T14:28:06.479Z,-2.80
2019-02-06T14:31:13.224Z,-2.90
2019-02-06T14:34:08.445Z,-2.90
2019-02-06T14:37:31.251Z,-2.85
2019-02-06T14:40:33.583Z,-3.00
2019-02-06T14:43:34.912Z,-3.15
2019-02-06T14:46:52.129Z,-3.29
2019-02-06T14:49:44.428Z,-3.30
2019-02-06T14:52:49.456Z,-3.34
2019-02-06T14:55:51.329Z,-3.43
2019-02-06T14:58:58.675Z,-3.49
2019-02-06T15:02:14.263Z,-3.54
2019-02-06T15:05:10.367Z,-3.64
2019-02-06T15:08:29.637Z,-3.66
2019-02-06T15:11:23.284Z,-3.64
2019-02-06T15:14:56.788Z,-3.68
2019-02-06T15:17:58.011Z,-3.70
2019-02-06T15:20:52.395Z,-3.70
2019-02-06T15:24:05.252Z,-3.62
2019-02-06T15:27:02.211Z,-3.67
2019-02-06T15:29:54.537Z,-3.63
2019-02-06T15:32:54.484Z,-3.79
2019-02-06T15:36:09.291Z,-3.74
2019-02-06T15:39:16.318Z,-3.70
2019-02-06T15:42:23.809Z,-3.70
2019-02-06T15:45:02.300Z,-3.65
2019-02-06T15:48:18.430Z,-3.83
2019-02-06T15:51:30.691Z,-3.85
2019-02-06T15:54:52.733Z,-3.89
2019-02-06T15:58:13.816Z,-3.85
2019-02-06T16:01:22.500Z,-3.97
2019-02-06T16:04:57.642Z,-3.96
2019-02-06T16:07:58.032Z,-3.77
2019-02-06T16:11:13.654Z,-3.85
2019-02-06T16:14:24.717Z,-3.74
2019-02-06T16:17:35.311Z,-3.76
2019-02-06T16:20:50.086Z,-3.83
2019-02-06T16:23:45.294Z,-3.77
2019-02-06T16:26:56.460Z,-3.66
2019-02-06T16:30:01.520Z,-3.61
2019-02-06T16:32:51.043Z,-3.60
2019-02-06T16:35:56.798Z,-3.45
2019-02-06T16:39:15.239Z,-3.41
2019-02-06T16:42:28.376Z,-3.30
2019-02-06T16:45:43.944Z,-3.20
2019-02-06T16:48:54.690Z,-3.10
2019-02-06T16:51:33.777Z,-3.07
2019-02-06T16:54:20.293Z,-3.04
2019-02-06T16:57:24.438Z,-2.96
2019-02-06T17:00:38.558Z,-2.93
2019-02-06T17:03:42.468Z,-2.85
2019-02-06T17:06:46.159Z,-2.77
2019-02-06T17:10:04.811Z,-2.70
2019-02-06T17:13:18.913Z,-3.10
2019-02-06T17:16:02.840Z,-2.56
2019-02-06T17:19:30.640Z,-2.47
2019-02-06T17:22:27.541Z,-2.41
2019-02-06T17:25:22.831Z,-2.36
2019-02-06T17:28:44.198Z,-2.28
2019-02-06T17:31:40.336Z,-2.33
2019-02-06T17:34:48.601Z,-2.28
2019-02-06T17:38:05.259Z,-2.28
2019-02-06T17:40:57.769Z,-2.23
2019-02-06T17:44:22.161Z,-2.14
2019-02-06T17:47:18.702Z,-2.13
2019-02-06T17:50:12.862Z,-1.99
2019-02-06T17:53:16.120Z,-1.98
2019-02-06T17:55:47.995Z,-1.87
2019-02-06T17:58:19.177Z,-1.84
2019-02-06T18:01:11.204Z,-1.78
2019-02-06T18:03:46.953Z,-1.78
2019-02-06T18:06:23.435Z,-1.74
2019-02-06T18:08:57.081Z,-1.75
2019-02-06T18:11:28.530Z,-1.69
2019-02-06T18:13:59.713Z,-1.62
2019-02-06T18:16:33.109Z,-1.60
2019-02-06T18:19:06.037Z,-1.56
2019-02-06T18:21:39.534Z,-1.50
2019-02-06T18:24:11.068Z,-1.49
2019-02-06T18:26:48.336Z,-1.41
2019-02-06T18:29:20.050Z,-1.46
2019-02-06T18:31:51.211Z,-1.37
2019-02-06T18:34:22.645Z,-1.33
2019-02-06T18:36:54.316Z,-1.23
2019-02-06T18:39:25.507Z,-1.28
2019-02-06T18:41:57.121Z,-1.17
2019-02-06T18:44:28.468Z,-1.09
2019-02-06T18:47:01.738Z,-1.07
2019-02-06T18:49:32.923Z,-1.02
2019-02-06T18:52:04.240Z,-0.98
2019-02-06T18:54:35.402Z,-0.94
2019-02-06T18:57:06.893Z,-0.91
2019-02-06T18:59:38.085Z,-0.93
2019-02-06T19:02:09.463Z,-0.91
2019-02-06T19:04:40.836Z,-0.85
2019-02-06T19:07:17.817Z,-0.78
2019-02-06T19:09:49.061Z,-0.72
2019-02-06T19:12:20.402Z,-0.73
2019-02-06T19:14:52.901Z,-0.65
2019-02-06T19:17:24.224Z,-0.59
2019-02-06T19:19:55.339Z,-0.55
2019-02-06T19:22:27.592Z,-0.48
2019-02-06T19:24:59.085Z,-0.46
2019-02-06T19:27:30.708Z,-0.45
2019-02-06T19:30:02.228Z,-0.45
2019-02-06T19:32:34.127Z,-0.41
2019-02-06T19:35:06.451Z,-0.39
2019-02-06T19:37:38.230Z,-0.30
2019-02-06T19:40:09.455Z,-0.23
2019-02-06T19:42:41.174Z,-0.18
2019-02-06T19:45:13.962Z,-0.20
2019-02-06T19:47:45.307Z,-0.15
2019-02-06T19:50:20.449Z,-0.11
2019-02-06T19:52:54.686Z,-0.18
2019-02-06T19:55:24.820Z,-0.14
2019-02-06T19:57:56.010Z,-0.07
2019-02-06T20:00:28.781Z,-0.05
2019-02-06T20:03:00.003Z,-0.07
2019-02-06T20:05:31.775Z,0.02
2019-02-06T20:08:03.252Z,0.02
2019-02-06T20:10:36.659Z,-0.01
2019-02-06T20:13:12.469Z,0.10
2019-02-06T20:15:42.867Z,0.10
2019-02-06T20:18:14.756Z,0.10
2019-02-06T20:20:45.861Z,0.15
2019-02-06T20:23:17.125Z,0.13
2019-02-06T20:25:48.483Z,0.12
2019-02-06T20:28:19.659Z,0.18
2019-02-06T20:30:50.870Z,0.21
2019-02-06T20:33:22.566Z,0.19
2019-02-06T20:35:54.450Z,0.21
2019-02-06T20:38:25.607Z,0.26
2019-02-06T20:40:58.070Z,0.27
2019-02-06T20:43:29.238Z,0.36
2019-02-06T20:46:00.676Z,0.35
2019-02-06T20:48:31.898Z,0.34
2019-02-06T20:51:03.863Z,0.32
2019-02-06T20:56:01.938Z,0.51
2019-02-06T20:58:34.408Z,0.47
2019-02-06T21:03:09.309Z,0.51
2019-02-06T21:05:40.458Z,-0.27
2019-02-06T21:08:11.811Z,0.49
2019-02-06T21:10:43.040Z,0.61
2019-02-06T21:13:14.419Z,0.60
2019-02-06T21:15:45.768Z,0.58
2019-02-06T21:18:17.104Z,0.54
2019-02-06T21:20:48.339Z,0.60
2019-02-06T21:23:19.494Z,0.67
2019-02-06T21:25:50.947Z,0.73
2019-02-06T21:28:22.662Z,0.77
2019-02-06T21:30:54.606Z,0.71
2019-02-06T21:33:26.064Z,0.75
2019-02-06T21:35:59.846Z,0.76
2019-02-06T21:38:36.316Z,0.78
2019-02-06T21:41:07.586Z,0.83
2019-02-06T21:43:44.263Z,0.78
2019-02-06T21:46:11.810Z,0.88
2019-02-06T21:48:43.845Z,0.90
2019-02-06T21:51:15.129Z,0.83
2019-02-06T21:53:46.293Z,0.81
2019-02-06T21:56:17.545Z,0.81
2019-02-06T21:58:48.763Z,0.81
2019-02-06T22:01:20.084Z,0.88
2019-02-06T22:03:51.152Z,0.85
2019-02-06T22:06:23.232Z,0.82
2019-02-06T22:08:54.635Z,0.89
2019-02-06T22:11:25.818Z,0.86
2019-02-06T22:13:59.840Z,0.90
2019-02-06T22:16:31.186Z,0.91
2019-02-06T22:19:02.630Z,0.91
2019-02-06T22:21:34.211Z,0.96
2019-02-06T22:24:05.450Z,0.90
2019-02-06T22:26:36.753Z,0.96
2019-02-06T22:29:07.942Z,0.94
2019-02-06T22:31:39.097Z,0.91
2019-02-06T22:34:10.227Z,0.89
2019-02-06T22:36:41.693Z,0.91
2019-02-06T22:39:12.919Z,0.96
2019-02-06T22:41:43.999Z,0.85
2019-02-06T22:44:15.143Z,0.92
2019-02-06T22:46:46.543Z,0.86
2019-02-06T22:49:18.129Z,0.86
2019-02-06T22:51:49.373Z,0.96
2019-02-06T22:54:20.518Z,1.01
2019-02-06T22:56:51.659Z,1.00
2019-02-06T22:59:22.807Z,1.04
2019-02-06T23:01:58.758Z,1.09
2019-02-06T23:04:29.825Z,1.07
2019-02-06T23:07:01.157Z,1.09
2019-02-06T23:09:32.375Z,1.11
2019-02-06T23:12:04.178Z,1.13
2019-02-06T23:14:35.358Z,1.08
2019-02-06T23:17:06.435Z,1.18
2019-02-06T23:19:37.616Z,1.05
2019-02-06T23:22:09.182Z,1.14
2019-02-06T23:24:40.566Z,1.22
2019-02-06T23:27:11.910Z,1.16
2019-02-06T23:29:43.141Z,1.18
2019-02-06T23:32:14.311Z,1.12
2019-02-06T23:34:46.718Z,1.19
2019-02-06T23:37:18.641Z,1.17
2019-02-06T23:39:49.719Z,1.12
2019-02-06T23:42:20.790Z,1.20
2019-02-06T23:44:52.616Z,1.23
2019-02-06T23:47:23.942Z,1.30
2019-02-06T23:49:55.019Z,1.31
2019-02-06T23:52:27.240Z,1.25
2019-02-06T23:54:58.595Z,1.05
2019-02-06T23:57:29.937Z,1.19
